createdAt,value
2017-07-25T03:48:54.786Z,19.67
2017-07-25T03:51:21.598Z,21.10
2017-07-25T03:53:48.421Z,19.27
2017-07-25T03:56:15.245Z,20.00
2017-07-25T03:58:42.087Z,19.27
2017-07-25T04:01:08.908Z,19.33
2017-07-25T04:03:36.371Z,20.07
2017-07-25T04:06:03.191Z,18.73
2017-07-25T04:08:30.016Z,19.17
2017-07-25T04:10:56.894Z,18.40
2017-07-25T04:13:23.724Z,18.43
2017-07-25T04:15:50.514Z,19.20
2017-07-25T04:18:17.944Z,19.40
2017-07-25T04:20:44.769Z,18.03
2017-07-25T04:23:11.554Z,18.47
2017-07-25T04:25:38.419Z,19.43
2017-07-25T04:28:06.203Z,18.90
2017-07-25T04:30:32.977Z,17.57
2017-07-25T04:32:59.793Z,16.70
2017-07-25T04:35:26.766Z,16.60
2017-07-25T04:37:53.585Z,16.67
2017-07-25T04:40:20.422Z,16.80
2017-07-25T04:42:47.274Z,17.90
2017-07-25T04:45:14.132Z,17.13
2017-07-25T04:47:40.996Z,16.93
2017-07-25T04:50:07.787Z,17.20
2017-07-25T04:52:34.611Z,18.67
2017-07-25T04:55:01.443Z,18.07
2017-07-25T04:57:28.259Z,17.27
2017-07-25T04:59:55.045Z,19.10
2017-07-25T05:02:21.897Z,17.83
2017-07-25T05:04:48.719Z,16.70
2017-07-25T05:07:15.501Z,17.90
2017-07-25T05:09:42.367Z,18.37
2017-07-25T05:12:09.942Z,17.43
2017-07-25T05:14:36.834Z,18.17
2017-07-25T05:17:03.691Z,19.40
2017-07-25T05:19:30.507Z,18.60
2017-07-25T05:21:57.357Z,19.13
2017-07-25T05:24:24.246Z,18.60
2017-07-25T05:26:51.067Z,19.20
2017-07-25T05:29:17.892Z,18.87
2017-07-25T05:31:45.602Z,18.57
2017-07-25T05:34:12.825Z,18.83
2017-07-25T05:36:39.666Z,17.50
2017-07-25T05:39:06.494Z,17.80
2017-07-25T05:41:33.308Z,17.70
2017-07-25T05:44:01.050Z,17.47
2017-07-25T05:46:27.906Z,17.60
2017-07-25T05:48:54.719Z,17.57
2017-07-25T05:51:21.564Z,18.17
2017-07-25T05:53:48.434Z,18.37
2017-07-25T05:56:15.289Z,18.90
2017-07-25T05:58:42.118Z,18.10
2017-07-25T06:01:13.974Z,18.40
2017-07-25T06:03:40.789Z,18.40
2017-07-25T06:06:07.624Z,16.43
2017-07-25T06:08:34.487Z,18.27
2017-07-25T06:11:01.269Z,16.87
2017-07-25T06:13:28.114Z,17.90
2017-07-25T06:15:54.932Z,16.00
2017-07-25T06:18:21.741Z,16.90
2017-07-25T06:20:48.567Z,17.67
2017-07-25T06:23:15.409Z,17.37
2017-07-25T06:25:42.233Z,18.40
2017-07-25T06:28:09.051Z,17.37
2017-07-25T06:30:35.929Z,17.07
2017-07-25T06:33:02.743Z,17.10
2017-07-25T06:35:29.530Z,14.97
2017-07-25T06:37:56.394Z,16.30
2017-07-25T06:40:23.173Z,15.80
2017-07-25T06:42:49.968Z,15.90
2017-07-25T06:45:16.786Z,15.13
2017-07-25T06:47:43.622Z,16.23
2017-07-25T06:50:10.428Z,15.27
2017-07-25T06:52:37.288Z,16.53
2017-07-25T06:55:04.131Z,15.87
2017-07-25T06:57:30.906Z,16.07
2017-07-25T06:59:57.802Z,16.00
2017-07-25T07:02:24.595Z,16.53
2017-07-25T07:04:51.503Z,16.80
2017-07-25T07:07:18.370Z,17.07
2017-07-25T07:09:45.294Z,16.97
2017-07-25T07:12:12.084Z,15.93
2017-07-25T07:14:38.975Z,15.60
2017-07-25T07:17:05.846Z,15.60
2017-07-25T07:19:32.705Z,14.80
2017-07-25T07:21:59.733Z,15.23
2017-07-25T07:24:26.571Z,14.17
2017-07-25T07:26:53.407Z,15.07
2017-07-25T07:29:20.265Z,13.60
2017-07-25T07:31:47.083Z,12.53
2017-07-25T07:34:14.023Z,12.57
2017-07-25T07:36:40.875Z,13.40
2017-07-25T07:39:07.661Z,11.67
2017-07-25T07:41:34.478Z,11.60
2017-07-25T07:44:01.363Z,12.07
2017-07-25T07:46:28.229Z,11.23
2017-07-25T07:48:55.071Z,12.00
2017-07-25T07:51:21.952Z,11.17
2017-07-25T07:53:48.769Z,10.70
2017-07-25T07:56:15.578Z,10.97
2017-07-25T07:58:42.646Z,13.10
2017-07-25T08:01:09.453Z,10.90
2017-07-25T08:03:36.234Z,11.77
2017-07-25T08:06:03.101Z,10.90
2017-07-25T08:08:29.877Z,11.20
2017-07-25T08:10:56.740Z,11.70
2017-07-25T08:13:23.609Z,11.70
2017-07-25T08:15:50.428Z,10.90
2017-07-25T08:18:17.205Z,10.60
2017-07-25T08:20:44.054Z,10.87
2017-07-25T08:23:10.834Z,10.80
2017-07-25T08:25:37.642Z,10.30
2017-07-25T08:28:04.549Z,11.97
2017-07-25T08:30:31.367Z,11.00
2017-07-25T08:32:58.186Z,10.27
2017-07-25T08:35:25.009Z,10.90
2017-07-25T08:37:51.794Z,10.30
2017-07-25T08:40:18.606Z,10.73
2017-07-25T08:42:45.471Z,10.80
2017-07-25T08:45:12.295Z,11.00
2017-07-25T08:47:39.069Z,10.77
2017-07-25T08:50:05.893Z,11.57
2017-07-25T08:52:32.680Z,12.00
2017-07-25T08:54:59.463Z,11.47
2017-07-25T08:57:26.306Z,14.23
2017-07-25T08:59:53.078Z,9.60
2017-07-25T09:02:19.896Z,8.37
2017-07-25T09:04:46.701Z,6.40
2017-07-25T09:07:13.506Z,5.23
2017-07-25T09:09:40.283Z,4.53
2017-07-25T09:12:07.089Z,4.23
2017-07-25T09:14:33.949Z,4.30
2017-07-25T09:17:00.760Z,4.50
2017-07-25T09:19:27.614Z,3.93
2017-07-25T09:21:54.378Z,4.07
2017-07-25T09:24:21.185Z,3.43
2017-07-25T09:26:48.044Z,3.50
2017-07-25T09:29:14.859Z,3.97
2017-07-25T09:31:41.630Z,3.70
2017-07-25T09:34:08.567Z,3.87
2017-07-25T09:36:35.338Z,8.80
2017-07-25T09:39:02.111Z,9.20
2017-07-25T09:41:29.902Z,8.53
2017-07-25T09:43:56.666Z,6.50
2017-07-25T09:46:23.498Z,5.77
2017-07-25T09:48:50.342Z,5.53
2017-07-25T09:51:17.149Z,5.10
2017-07-25T09:53:43.933Z,5.00
2017-07-25T09:56:10.772Z,4.20
2017-07-25T09:58:37.577Z,4.03
2017-07-25T10:01:04.390Z,4.20
2017-07-25T10:03:31.226Z,4.00
2017-07-25T10:05:58.125Z,4.83
2017-07-25T10:08:24.953Z,4.53
2017-07-25T10:10:51.806Z,4.30
2017-07-25T10:13:19.408Z,4.17
2017-07-25T10:15:46.185Z,3.67
2017-07-25T10:18:13.803Z,3.87
2017-07-25T10:20:40.876Z,6.10
2017-07-25T10:23:07.651Z,6.80
2017-07-25T10:25:34.497Z,4.80
2017-07-25T10:28:01.297Z,4.40
2017-07-25T10:30:28.078Z,5.10
2017-07-25T10:32:54.902Z,4.57
2017-07-25T10:35:21.742Z,4.63
2017-07-25T10:37:48.568Z,5.30
2017-07-25T10:40:15.438Z,5.87
2017-07-25T10:42:42.288Z,5.13
2017-07-25T10:45:09.094Z,4.67
2017-07-25T10:47:36.873Z,5.00
2017-07-25T10:50:03.707Z,4.73
2017-07-25T10:52:30.534Z,4.63
2017-07-25T10:54:57.404Z,4.57
2017-07-25T10:57:24.212Z,4.90
2017-07-25T10:59:51.271Z,5.00
2017-07-25T11:02:18.129Z,4.77
2017-07-25T11:04:44.981Z,4.77
2017-07-25T11:07:12.173Z,5.07
2017-07-25T11:09:39.029Z,4.90
2017-07-25T11:12:05.829Z,5.00
2017-07-25T11:14:32.672Z,5.43
2017-07-25T11:16:59.480Z,5.37
2017-07-25T11:19:26.250Z,5.60
2017-07-25T11:21:53.023Z,5.70
2017-07-25T11:24:19.869Z,6.03
2017-07-25T11:26:46.783Z,5.70
2017-07-25T11:29:13.639Z,5.43
2017-07-25T11:31:40.481Z,5.63
2017-07-25T11:34:08.054Z,5.47
2017-07-25T11:36:34.883Z,5.83
2017-07-25T11:39:01.689Z,6.53
2017-07-25T11:41:28.461Z,6.30
2017-07-25T11:43:56.208Z,5.97
2017-07-25T11:46:23.053Z,6.10
2017-07-25T11:48:49.863Z,6.70
2017-07-25T11:51:16.686Z,6.03
2017-07-25T11:53:43.513Z,6.50
2017-07-25T11:56:10.286Z,6.50
2017-07-25T11:58:37.154Z,6.67
2017-07-25T12:01:04.057Z,6.30
2017-07-25T12:03:30.871Z,6.70
2017-07-25T12:05:57.704Z,6.57
2017-07-25T12:08:24.591Z,6.33
2017-07-25T12:10:51.401Z,6.70
2017-07-25T12:13:19.033Z,5.90
2017-07-25T12:15:45.888Z,6.07
2017-07-25T12:18:12.666Z,6.37
2017-07-25T12:20:40.417Z,5.47
2017-07-25T12:23:07.275Z,5.27
2017-07-25T12:25:34.105Z,5.13
2017-07-25T12:28:00.886Z,5.37
2017-07-25T12:30:27.746Z,5.37
2017-07-25T12:32:54.554Z,5.10
2017-07-25T12:35:21.439Z,4.27
2017-07-25T12:37:48.268Z,5.10
2017-07-25T12:40:15.071Z,4.27
2017-07-25T12:42:41.892Z,4.40
2017-07-25T12:45:08.729Z,5.00
2017-07-25T12:47:35.538Z,4.67
2017-07-25T12:50:02.381Z,4.43
2017-07-25T12:52:29.238Z,4.60
2017-07-25T12:54:56.053Z,4.30
2017-07-25T12:57:23.463Z,5.20
2017-07-25T12:59:50.485Z,5.10
2017-07-25T13:02:24.177Z,4.77
2017-07-25T13:04:51.110Z,4.27
2017-07-25T13:07:17.951Z,4.83
2017-07-25T13:09:45.145Z,4.60
2017-07-25T13:12:12.014Z,4.90
2017-07-25T13:14:38.813Z,5.07
2017-07-25T13:17:05.622Z,4.70
2017-07-25T13:19:33.299Z,5.60
2017-07-25T13:22:00.077Z,5.67
2017-07-25T13:24:26.939Z,5.33
2017-07-25T13:26:53.827Z,6.23
2017-07-25T13:29:20.689Z,5.80
2017-07-25T13:31:47.526Z,6.37
2017-07-25T13:34:14.418Z,6.10
2017-07-25T13:36:41.253Z,6.03
2017-07-25T13:39:08.036Z,6.67
2017-07-25T13:41:34.857Z,7.70
2017-07-25T13:44:01.667Z,8.17
2017-07-25T13:46:28.524Z,8.00
2017-07-25T13:48:55.666Z,7.90
2017-07-25T13:51:22.503Z,7.90
2017-07-25T13:53:49.322Z,8.07
2017-07-25T13:56:16.213Z,8.43
2017-07-25T13:58:43.054Z,8.63
2017-07-25T14:01:09.910Z,8.63
2017-07-25T14:03:36.813Z,8.83
2017-07-25T14:06:03.629Z,8.57
2017-07-25T14:08:30.459Z,9.20
2017-07-25T14:10:57.274Z,8.83
2017-07-25T14:13:24.092Z,8.57
2017-07-25T14:15:50.950Z,7.83
2017-07-25T14:18:17.805Z,8.20
2017-07-25T14:20:45.537Z,7.67
2017-07-25T14:23:12.343Z,7.80
2017-07-25T14:25:39.187Z,7.30
2017-07-25T14:28:05.962Z,7.70
2017-07-25T14:30:32.775Z,8.20
2017-07-25T14:32:59.589Z,6.63
2017-07-25T14:35:26.408Z,6.63
2017-07-25T14:37:53.263Z,7.00
2017-07-25T14:40:20.103Z,7.00
2017-07-25T14:42:46.950Z,6.80
2017-07-25T14:45:13.798Z,6.70
2017-07-25T14:47:40.613Z,6.90
2017-07-25T14:50:07.454Z,7.20
2017-07-25T14:52:34.221Z,7.60
2017-07-25T14:55:01.162Z,6.77
2017-07-25T14:57:27.979Z,7.30
2017-07-25T14:59:54.758Z,7.53
2017-07-25T15:02:21.594Z,7.80
2017-07-25T15:04:48.385Z,7.53
2017-07-25T15:07:15.220Z,7.30
2017-07-25T15:09:42.074Z,7.60
2017-07-25T15:12:08.856Z,6.77
2017-07-25T15:14:35.653Z,6.20
2017-07-25T15:17:02.523Z,7.50
2017-07-25T15:19:29.853Z,6.87
2017-07-25T15:21:56.705Z,6.27
2017-07-25T15:24:23.676Z,6.10
2017-07-25T15:26:50.483Z,6.20
2017-07-25T15:29:17.346Z,5.70
2017-07-25T15:31:44.304Z,5.77
2017-07-25T15:34:11.070Z,5.63
2017-07-25T15:36:37.887Z,5.63
2017-07-25T15:39:04.747Z,4.93
2017-07-25T15:41:31.531Z,5.03
2017-07-25T15:43:58.929Z,5.43
2017-07-25T15:46:26.589Z,5.10
2017-07-25T15:48:53.407Z,5.60
2017-07-25T15:51:20.217Z,5.57
2017-07-25T15:53:47.099Z,5.13
2017-07-25T15:56:13.922Z,4.40
2017-07-25T15:58:40.763Z,3.93
2017-07-25T16:01:07.615Z,4.40
2017-07-25T16:03:34.439Z,4.60
2017-07-25T16:06:01.255Z,4.80
2017-07-25T16:08:28.157Z,4.43
2017-07-25T16:10:54.925Z,4.10
2017-07-25T16:13:21.772Z,4.77
2017-07-25T16:15:48.585Z,4.90
2017-07-25T16:18:15.421Z,5.00
2017-07-25T16:20:42.224Z,4.20
2017-07-25T16:23:09.069Z,3.90
2017-07-25T16:25:35.953Z,4.20
2017-07-25T16:28:02.795Z,4.20
2017-07-25T16:30:29.651Z,4.43
2017-07-25T16:32:56.423Z,3.97
2017-07-25T16:35:23.243Z,3.70
2017-07-25T16:37:50.066Z,4.07
2017-07-25T16:40:16.888Z,3.90
2017-07-25T16:45:19.875Z,4.13
2017-07-25T16:47:46.677Z,4.40
2017-07-25T16:50:13.515Z,4.30
2017-07-25T16:52:40.357Z,4.60
2017-07-25T16:55:07.146Z,4.83
2017-07-25T16:57:34.013Z,4.37
2017-07-25T17:00:00.963Z,4.37
2017-07-25T17:02:27.776Z,5.00
2017-07-25T17:04:54.553Z,4.50
2017-07-25T17:07:21.397Z,4.80
2017-07-25T17:09:48.204Z,5.17
2017-07-25T17:12:14.989Z,5.80
2017-07-25T17:14:41.900Z,7.23
2017-07-25T17:17:08.961Z,4.53
2017-07-25T17:19:36.102Z,4.90
2017-07-25T17:22:03.589Z,5.00
2017-07-25T17:24:30.393Z,5.13
2017-07-25T17:26:57.258Z,5.20
2017-07-25T17:29:24.092Z,5.20
2017-07-25T17:31:50.963Z,4.40
2017-07-25T17:34:17.777Z,4.97
2017-07-25T17:36:44.679Z,5.23
2017-07-25T17:39:11.504Z,6.40
2017-07-25T17:41:38.305Z,5.67
2017-07-25T17:44:05.241Z,7.80
2017-07-25T17:46:32.091Z,6.90
2017-07-25T17:48:58.915Z,7.10
2017-07-25T17:51:25.759Z,7.00
2017-07-25T17:53:52.591Z,6.17
2017-07-25T17:56:19.417Z,6.30
2017-07-25T17:58:46.289Z,7.20
2017-07-25T18:01:13.243Z,6.87
2017-07-25T18:03:40.037Z,8.70
2017-07-25T18:06:06.884Z,8.87
2017-07-25T18:08:33.673Z,8.20
2017-07-25T18:11:00.449Z,7.40
2017-07-25T18:13:27.296Z,6.23
2017-07-25T18:15:54.106Z,6.23
2017-07-25T18:18:21.038Z,5.77
2017-07-25T18:20:47.947Z,6.17
2017-07-25T18:23:14.763Z,5.93
2017-07-25T18:25:41.608Z,5.20
2017-07-25T18:28:08.479Z,5.20
2017-07-25T18:30:35.273Z,6.90
2017-07-25T18:33:02.132Z,5.80
2017-07-25T18:35:29.059Z,5.10
2017-07-25T18:37:55.847Z,5.93
2017-07-25T18:40:22.687Z,5.00
2017-07-25T18:42:49.535Z,5.57
2017-07-25T18:45:16.314Z,5.43
2017-07-25T18:47:43.093Z,5.47
2017-07-25T18:50:09.952Z,6.13
2017-07-25T18:52:36.764Z,5.67
2017-07-25T18:55:04.095Z,5.50
2017-07-25T18:57:31.305Z,6.00
2017-07-25T18:59:58.515Z,7.40
2017-07-25T19:02:25.488Z,8.20
2017-07-25T19:04:52.344Z,7.80
2017-07-25T19:07:19.111Z,6.07
2017-07-25T19:09:45.977Z,5.70
2017-07-25T19:12:12.898Z,6.63
